sensor_id;sensor_type;location;lat;lon;timestamp;P1;durP1;ratioP1;P2;durP2;ratioP2
23322;SDS011;11833;52.554;13.554;2023-12-07T01:02:43;12.98;;;8.38;;
23322;SDS011;11833;52.554;13.554;2023-12-07T01:05:08;12.40;;;8.23;;
23322;SDS011;11833;52.554;13.554;2023-12-07T01:07:34;17.27;;;11.00;;
23322;SDS011;11833;52.554;13.554;2023-12-07T01:10:00;12.63;;;7.90;;
23322;SDS011;11833;52.554;13.554;2023-12-07T01:12:25;13.43;;;8.85;;
23322;SDS011;11833;52.554;13.554;2023-12-07T01:14:51;14.48;;;10.07;;
23322;SDS011;11833;52.554;13.554;2023-12-07T01:17:17;15.90;;;10.88;;
23322;SDS011;11833;52.554;13.554;2023-12-07T01:19:43;15.93;;;11.48;;
23322;SDS011;11833;52.554;13.554;2023-12-07T01:22:09;14.38;;;10.27;;
23322;SDS011;11833;52.554;13.554;2023-12-07T01:24:34;11.80;;;9.05;;
23322;SDS011;11833;52.554;13.554;2023-12-07T01:27:00;12.68;;;9.43;;
23322;SDS011;11833;52.554;13.554;2023-12-07T01:29:26;13.55;;;9.38;;
23322;SDS011;11833;52.554;13.554;2023-12-07T01:31:52;16.73;;;11.68;;
23322;SDS011;11833;52.554;13.554;2023-12-07T01:34:17;14.73;;;10.45;;
23322;SDS011;11833;52.554;13.554;2023-12-07T01:36:44;13.65;;;8.90;;
23322;SDS011;11833;52.554;13.554;2023-12-07T01:39:09;15.63;;;9.93;;
23322;SDS011;11833;52.554;13.554;2023-12-07T01:41:38;13.48;;;9.88;;
23322;SDS011;11833;52.554;13.554;2023-12-07T01:44:04;13.98;;;9.98;;
23322;SDS011;11833;52.554;13.554;2023-12-07T01:46:31;15.18;;;9.38;;
23322;SDS011;11833;52.554;13.554;2023-12-07T01:48:58;14.30;;;9.50;;
23322;SDS011;11833;52.554;13.554;2023-12-07T01:51:24;11.95;;;8.23;;
23322;SDS011;11833;52.554;13.554;2023-12-07T01:53:51;13.85;;;9.80;;
23322;SDS011;11833;52.554;13.554;2023-12-07T01:56:17;11.95;;;8.25;;
23322;SDS011;11833;52.554;13.554;2023-12-07T01:58:43;11.75;;;8.23;;
23322;SDS011;11833;52.554;13.554;2023-12-07T02:01:09;12.65;;;9.02;;
23322;SDS011;11833;52.554;13.554;2023-12-07T02:03:39;14.57;;;10.13;;
23322;SDS011;11833;52.554;13.554;2023-12-07T02:06:05;15.05;;;9.85;;
23322;SDS011;11833;52.554;13.554;2023-12-07T02:08:31;14.32;;;9.82;;
23322;SDS011;11833;52.554;13.554;2023-12-07T02:10:57;13.57;;;7.78;;
23322;SDS011;11833;52.554;13.554;2023-12-07T02:13:23;13.40;;;10.52;;
23322;SDS011;11833;52.554;13.554;2023-12-07T02:15:49;16.13;;;11.43;;
23322;SDS011;11833;52.554;13.554;2023-12-07T02:18:24;17.17;;;12.18;;
23322;SDS011;11833;52.554;13.554;2023-12-07T02:21:30;16.25;;;11.13;;
23322;SDS011;11833;52.554;13.554;2023-12-07T02:24:06;13.30;;;8.32;;
23322;SDS011;11833;52.554;13.554;2023-12-07T02:26:36;13.90;;;9.70;;
23322;SDS011;11833;52.554;13.554;2023-12-07T02:29:04;14.25;;;9.10;;
23322;SDS011;11833;52.554;13.554;2023-12-07T02:31:30;16.40;;;10.40;;
23322;SDS011;11833;52.554;13.554;2023-12-07T02:33:56;14.52;;;8.55;;
23322;SDS011;11833;52.554;13.554;2023-12-07T02:40:03;15.40;;;9.88;;
23322;SDS011;11833;52.554;13.554;2023-12-07T02:42:35;12.02;;;7.80;;
23322;SDS011;11833;52.554;13.554;2023-12-07T02:45:03;15.88;;;10.60;;
23322;SDS011;11833;52.554;13.554;2023-12-07T02:47:30;12.35;;;8.00;;
23322;SDS011;11833;52.554;13.554;2023-12-07T02:49:56;14.32;;;10.00;;
23322;SDS011;11833;52.554;13.554;2023-12-07T02:52:21;15.73;;;10.68;;
23322;SDS011;11833;52.554;13.554;2023-12-07T02:54:47;15.80;;;10.80;;
23322;SDS011;11833;52.554;13.554;2023-12-07T02:57:13;14.68;;;10.13;;
23322;SDS011;11833;52.554;13.554;2023-12-07T02:59:39;16.48;;;11.07;;
23322;SDS011;11833;52.554;13.554;2023-12-07T03:02:05;16.40;;;11.10;;
23322;SDS011;11833;52.554;13.554;2023-12-07T03:04:31;14.73;;;9.88;;
23322;SDS011;11833;52.554;13.554;2023-12-07T03:06:57;14.55;;;10.38;;
23322;SDS011;11833;52.554;13.554;2023-12-07T03:09:24;10.73;;;7.43;;
23322;SDS011;11833;52.554;13.554;2023-12-07T03:11:50;13.77;;;10.35;;
23322;SDS011;11833;52.554;13.554;2023-12-07T03:14:16;12.73;;;9.90;;
23322;SDS011;11833;52.554;13.554;2023-12-07T03:16:41;16.63;;;11.60;;
23322;SDS011;11833;52.554;13.554;2023-12-07T03:19:07;15.60;;;11.15;;
23322;SDS011;11833;52.554;13.554;2023-12-07T03:21:33;13.63;;;9.95;;
23322;SDS011;11833;52.554;13.554;2023-12-07T03:23:59;10.25;;;7.35;;
23322;SDS011;11833;52.554;13.554;2023-12-07T03:26:25;14.77;;;11.23;;
23322;SDS011;11833;52.554;13.554;2023-12-07T03:28:50;14.77;;;9.70;;
23322;SDS011;11833;52.554;13.554;2023-12-07T03:31:16;16.40;;;10.45;;
23322;SDS011;11833;52.554;13.554;2023-12-07T03:33:42;12.00;;;8.75;;
23322;SDS011;11833;52.554;13.554;2023-12-07T03:36:10;13.13;;;9.60;;
23322;SDS011;11833;52.554;13.554;2023-12-07T03:38:36;14.07;;;9.70;;
23322;SDS011;11833;52.554;13.554;2023-12-07T03:41:02;14.88;;;10.73;;
23322;SDS011;11833;52.554;13.554;2023-12-07T03:43:29;12.93;;;10.00;;
23322;SDS011;11833;52.554;13.554;2023-12-07T03:45:55;14.82;;;10.73;;
23322;SDS011;11833;52.554;13.554;2023-12-07T03:48:20;16.08;;;11.73;;
23322;SDS011;11833;52.554;13.554;2023-12-07T03:50:46;11.93;;;7.97;;
23322;SDS011;11833;52.554;13.554;2023-12-07T03:53:12;15.73;;;10.75;;
23322;SDS011;11833;52.554;13.554;2023-12-07T03:55:38;14.00;;;10.00;;
23322;SDS011;11833;52.554;13.554;2023-12-07T03:58:04;15.80;;;10.90;;
23322;SDS011;11833;52.554;13.554;2023-12-07T04:00:31;16.77;;;11.73;;
23322;SDS011;11833;52.554;13.554;2023-12-07T04:02:58;16.88;;;11.57;;
23322;SDS011;11833;52.554;13.554;2023-12-07T04:05:23;13.10;;;8.93;;
23322;SDS011;11833;52.554;13.554;2023-12-07T04:07:49;16.60;;;11.38;;
23322;SDS011;11833;52.554;13.554;2023-12-07T04:10:15;14.07;;;9.63;;
23322;SDS011;11833;52.554;13.554;2023-12-07T04:12:41;19.33;;;12.10;;
23322;SDS011;11833;52.554;13.554;2023-12-07T04:15:07;17.88;;;12.30;;
23322;SDS011;11833;52.554;13.554;2023-12-07T04:17:33;13.00;;;8.90;;
23322;SDS011;11833;52.554;13.554;2023-12-07T04:19:59;16.95;;;11.05;;
23322;SDS011;11833;52.554;13.554;2023-12-07T04:22:25;16.95;;;10.85;;
23322;SDS011;11833;52.554;13.554;2023-12-07T04:24:50;18.65;;;11.48;;
23322;SDS011;11833;52.554;13.554;2023-12-07T04:27:16;12.85;;;9.48;;
23322;SDS011;11833;52.554;13.554;2023-12-07T04:29:42;19.60;;;13.38;;
23322;SDS011;11833;52.554;13.554;2023-12-07T04:32:07;15.75;;;10.50;;
23322;SDS011;11833;52.554;13.554;2023-12-07T04:34:33;16.30;;;11.85;;
23322;SDS011;11833;52.554;13.554;2023-12-07T04:36:59;16.33;;;11.43;;
23322;SDS011;11833;52.554;13.554;2023-12-07T04:39:25;18.35;;;11.43;;
23322;SDS011;11833;52.554;13.554;2023-12-07T04:41:51;14.07;;;9.05;;
23322;SDS011;11833;52.554;13.554;2023-12-07T04:44:17;19.13;;;12.15;;
23322;SDS011;11833;52.554;13.554;2023-12-07T04:46:42;15.98;;;10.75;;
23322;SDS011;11833;52.554;13.554;2023-12-07T04:49:08;22.58;;;13.38;;
23322;SDS011;11833;52.554;13.554;2023-12-07T04:51:34;24.25;;;13.85;;
23322;SDS011;11833;52.554;13.554;2023-12-07T04:54:00;18.55;;;11.75;;
23322;SDS011;11833;52.554;13.554;2023-12-07T04:56:25;22.85;;;13.32;;
23322;SDS011;11833;52.554;13.554;2023-12-07T04:58:51;19.50;;;10.95;;
23322;SDS011;11833;52.554;13.554;2023-12-07T05:01:17;22.85;;;12.98;;
23322;SDS011;11833;52.554;13.554;2023-12-07T05:03:44;23.45;;;14.10;;
23322;SDS011;11833;52.554;13.554;2023-12-07T05:06:10;21.95;;;14.07;;
23322;SDS011;11833;52.554;13.554;2023-12-07T05:08:36;24.48;;;12.35;;
23322;SDS011;11833;52.554;13.554;2023-12-07T05:11:04;22.75;;;13.52;;
23322;SDS011;11833;52.554;13.554;2023-12-07T05:13:31;26.48;;;14.70;;
23322;SDS011;11833;52.554;13.554;2023-12-07T05:15:58;26.67;;;15.40;;
23322;SDS011;11833;52.554;13.554;2023-12-07T05:18:25;27.88;;;15.02;;
23322;SDS011;11833;52.554;13.554;2023-12-07T05:20:51;23.15;;;13.57;;
23322;SDS011;11833;52.554;13.554;2023-12-07T05:23:16;25.23;;;14.70;;
23322;SDS011;11833;52.554;13.554;2023-12-07T05:25:42;25.15;;;15.10;;
23322;SDS011;11833;52.554;13.554;2023-12-07T05:28:08;28.65;;;15.45;;
23322;SDS011;11833;52.554;13.554;2023-12-07T05:30:35;28.02;;;15.57;;
23322;SDS011;11833;52.554;13.554;2023-12-07T05:33:01;24.52;;;14.23;;
23322;SDS011;11833;52.554;13.554;2023-12-07T05:35:27;29.15;;;15.57;;
23322;SDS011;11833;52.554;13.554;2023-12-07T05:37:53;23.48;;;13.02;;
23322;SDS011;11833;52.554;13.554;2023-12-07T05:40:19;27.23;;;16.00;;
23322;SDS011;11833;52.554;13.554;2023-12-07T05:42:46;26.52;;;14.75;;
23322;SDS011;11833;52.554;13.554;2023-12-07T05:45:15;14.60;;;9.32;;
23322;SDS011;11833;52.554;13.554;2023-12-07T05:47:41;23.50;;;14.77;;
23322;SDS011;11833;52.554;13.554;2023-12-07T05:50:07;22.85;;;13.68;;
23322;SDS011;11833;52.554;13.554;2023-12-07T05:52:33;24.10;;;13.70;;
23322;SDS011;11833;52.554;13.554;2023-12-07T05:54:59;24.50;;;13.43;;
23322;SDS011;11833;52.554;13.554;2023-12-07T05:57:24;24.15;;;14.07;;
23322;SDS011;11833;52.554;13.554;2023-12-07T05:59:50;25.00;;;14.38;;
23322;SDS011;11833;52.554;13.554;2023-12-07T06:02:16;26.45;;;16.08;;
23322;SDS011;11833;52.554;13.554;2023-12-07T06:04:42;27.60;;;15.52;;
23322;SDS011;11833;52.554;13.554;2023-12-07T06:07:07;24.33;;;14.63;;
23322;SDS011;11833;52.554;13.554;2023-12-07T06:09:33;25.52;;;14.82;;
23322;SDS011;11833;52.554;13.554;2023-12-07T06:11:59;23.23;;;13.73;;
23322;SDS011;11833;52.554;13.554;2023-12-07T06:14:25;23.38;;;13.43;;
23322;SDS011;11833;52.554;13.554;2023-12-07T06:16:51;22.25;;;13.80;;
23322;SDS011;11833;52.554;13.554;2023-12-07T06:19:16;21.95;;;13.30;;
23322;SDS011;11833;52.554;13.554;2023-12-07T06:21:43;24.17;;;13.90;;
23322;SDS011;11833;52.554;13.554;2023-12-07T06:24:09;23.15;;;12.95;;
23322;SDS011;11833;52.554;13.554;2023-12-07T06:26:35;22.92;;;14.13;;
23322;SDS011;11833;52.554;13.554;2023-12-07T06:29:01;24.35;;;14.13;;
23322;SDS011;11833;52.554;13.554;2023-12-07T06:31:27;28.17;;;13.80;;
23322;SDS011;11833;52.554;13.554;2023-12-07T06:33:53;26.17;;;14.90;;
23322;SDS011;11833;52.554;13.554;2023-12-07T06:36:22;25.13;;;14.65;;
23322;SDS011;11833;52.554;13.554;2023-12-07T06:38:49;29.70;;;15.38;;
23322;SDS011;11833;52.554;13.554;2023-12-07T06:41:15;27.15;;;14.82;;
23322;SDS011;11833;52.554;13.554;2023-12-07T06:43:41;26.63;;;15.38;;
23322;SDS011;11833;52.554;13.554;2023-12-07T06:46:10;28.45;;;14.98;;
23322;SDS011;11833;52.554;13.554;2023-12-07T06:48:41;23.98;;;14.48;;
23322;SDS011;11833;52.554;13.554;2023-12-07T06:51:07;21.50;;;12.80;;
23322;SDS011;11833;52.554;13.554;2023-12-07T06:53:33;23.40;;;12.85;;
23322;SDS011;11833;52.554;13.554;2023-12-07T06:55:59;24.80;;;14.05;;
23322;SDS011;11833;52.554;13.554;2023-12-07T06:58:24;22.75;;;13.52;;
23322;SDS011;11833;52.554;13.554;2023-12-07T07:00:50;21.52;;;12.60;;
23322;SDS011;11833;52.554;13.554;2023-12-07T07:03:16;22.38;;;13.57;;
23322;SDS011;11833;52.554;13.554;2023-12-07T07:05:42;24.48;;;13.82;;
23322;SDS011;11833;52.554;13.554;2023-12-07T07:08:08;26.08;;;14.35;;
23322;SDS011;11833;52.554;13.554;2023-12-07T07:10:33;24.00;;;14.80;;
23322;SDS011;11833;52.554;13.554;2023-12-07T07:13:00;26.77;;;14.85;;
23322;SDS011;11833;52.554;13.554;2023-12-07T07:15:33;25.55;;;14.75;;
23322;SDS011;11833;52.554;13.554;2023-12-07T07:17:59;26.33;;;15.43;;
23322;SDS011;11833;52.554;13.554;2023-12-07T07:20:26;26.73;;;15.38;;
23322;SDS011;11833;52.554;13.554;2023-12-07T07:22:52;26.80;;;15.23;;
23322;SDS011;11833;52.554;13.554;2023-12-07T07:25:17;23.85;;;13.55;;
23322;SDS011;11833;52.554;13.554;2023-12-07T07:27:45;23.45;;;13.57;;
23322;SDS011;11833;52.554;13.554;2023-12-07T07:30:11;23.10;;;13.52;;
23322;SDS011;11833;52.554;13.554;2023-12-07T07:32:37;24.13;;;13.93;;
23322;SDS011;11833;52.554;13.554;2023-12-07T07:35:03;23.10;;;13.77;;
23322;SDS011;11833;52.554;13.554;2023-12-07T07:37:29;23.75;;;14.00;;
23322;SDS011;11833;52.554;13.554;2023-12-07T07:39:55;24.52;;;14.48;;
23322;SDS011;11833;52.554;13.554;2023-12-07T07:42:21;24.52;;;14.20;;
23322;SDS011;11833;52.554;13.554;2023-12-07T07:44:47;24.80;;;14.05;;
23322;SDS011;11833;52.554;13.554;2023-12-07T07:47:12;32.88;;;14.65;;
23322;SDS011;11833;52.554;13.554;2023-12-07T07:49:38;25.30;;;14.93;;
23322;SDS011;11833;52.554;13.554;2023-12-07T07:52:04;26.38;;;14.23;;
23322;SDS011;11833;52.554;13.554;2023-12-07T07:54:30;23.83;;;13.70;;
23322;SDS011;11833;52.554;13.554;2023-12-07T07:56:56;26.83;;;15.00;;
23322;SDS011;11833;52.554;13.554;2023-12-07T07:59:22;26.38;;;14.10;;
23322;SDS011;11833;52.554;13.554;2023-12-07T08:01:48;23.58;;;13.60;;
23322;SDS011;11833;52.554;13.554;2023-12-07T08:04:14;26.80;;;14.40;;
23322;SDS011;11833;52.554;13.554;2023-12-07T08:06:41;27.65;;;15.25;;
23322;SDS011;11833;52.554;13.554;2023-12-07T08:09:07;25.70;;;13.65;;
23322;SDS011;11833;52.554;13.554;2023-12-07T08:11:34;24.00;;;14.15;;
23322;SDS011;11833;52.554;13.554;2023-12-07T08:14:00;28.08;;;15.10;;
23322;SDS011;11833;52.554;13.554;2023-12-07T08:16:26;23.35;;;13.63;;
23322;SDS011;11833;52.554;13.554;2023-12-07T08:18:52;27.88;;;14.40;;
23322;SDS011;11833;52.554;13.554;2023-12-07T08:21:19;25.58;;;15.25;;
23322;SDS011;11833;52.554;13.554;2023-12-07T08:23:49;28.10;;;14.43;;
23322;SDS011;11833;52.554;13.554;2023-12-07T08:26:16;24.60;;;14.07;;
23322;SDS011;11833;52.554;13.554;2023-12-07T08:28:42;22.77;;;13.57;;
23322;SDS011;11833;52.554;13.554;2023-12-07T08:31:09;20.25;;;11.82;;
23322;SDS011;11833;52.554;13.554;2023-12-07T08:33:35;23.75;;;13.68;;
23322;SDS011;11833;52.554;13.554;2023-12-07T08:36:04;24.88;;;13.95;;
23322;SDS011;11833;52.554;13.554;2023-12-07T08:38:31;18.67;;;9.57;;
23322;SDS011;11833;52.554;13.554;2023-12-07T08:40:57;24.17;;;13.70;;
23322;SDS011;11833;52.554;13.554;2023-12-07T08:43:23;24.27;;;13.45;;
23322;SDS011;11833;52.554;13.554;2023-12-07T08:45:52;23.73;;;12.63;;
23322;SDS011;11833;52.554;13.554;2023-12-07T08:48:21;19.08;;;11.68;;
23322;SDS011;11833;52.554;13.554;2023-12-07T08:50:47;24.50;;;12.98;;
23322;SDS011;11833;52.554;13.554;2023-12-07T08:53:13;22.45;;;12.25;;
23322;SDS011;11833;52.554;13.554;2023-12-07T08:55:39;27.70;;;12.20;;
23322;SDS011;11833;52.554;13.554;2023-12-07T08:58:05;27.02;;;13.98;;
23322;SDS011;11833;52.554;13.554;2023-12-07T09:00:31;22.80;;;13.05;;
23322;SDS011;11833;52.554;13.554;2023-12-07T09:02:57;27.83;;;14.68;;
23322;SDS011;11833;52.554;13.554;2023-12-07T09:05:23;24.92;;;13.45;;
23322;SDS011;11833;52.554;13.554;2023-12-07T09:07:51;26.38;;;11.98;;
23322;SDS011;11833;52.554;13.554;2023-12-07T09:10:17;24.75;;;13.15;;
23322;SDS011;11833;52.554;13.554;2023-12-07T09:12:44;25.55;;;12.90;;
23322;SDS011;11833;52.554;13.554;2023-12-07T09:15:10;23.40;;;11.68;;
23322;SDS011;11833;52.554;13.554;2023-12-07T09:17:37;21.30;;;11.30;;
23322;SDS011;11833;52.554;13.554;2023-12-07T09:20:10;24.33;;;13.15;;
23322;SDS011;11833;52.554;13.554;2023-12-07T09:22:42;19.73;;;10.25;;
23322;SDS011;11833;52.554;13.554;2023-12-07T09:25:10;26.77;;;13.77;;
23322;SDS011;11833;52.554;13.554;2023-12-07T09:27:37;29.40;;;13.95;;
23322;SDS011;11833;52.554;13.554;2023-12-07T09:30:05;22.55;;;13.20;;
23322;SDS011;11833;52.554;13.554;2023-12-07T09:32:42;19.05;;;11.48;;
23322;SDS011;11833;52.554;13.554;2023-12-07T09:35:08;25.73;;;13.90;;
23322;SDS011;11833;52.554;13.554;2023-12-07T09:37:44;23.98;;;13.13;;
23322;SDS011;11833;52.554;13.554;2023-12-07T09:40:17;26.13;;;15.05;;
23322;SDS011;11833;52.554;13.554;2023-12-07T09:42:47;21.27;;;12.20;;
23322;SDS011;11833;52.554;13.554;2023-12-07T09:45:14;22.98;;;13.90;;
23322;SDS011;11833;52.554;13.554;2023-12-07T09:47:43;23.00;;;12.60;;
23322;SDS011;11833;52.554;13.554;2023-12-07T09:50:18;27.25;;;15.10;;
23322;SDS011;11833;52.554;13.554;2023-12-07T09:55:21;20.80;;;12.63;;
23322;SDS011;11833;52.554;13.554;2023-12-07T09:57:51;21.92;;;13.30;;
23322;SDS011;11833;52.554;13.554;2023-12-07T10:00:19;19.10;;;10.95;;
23322;SDS011;11833;52.554;13.554;2023-12-07T10:02:45;17.63;;;10.90;;
23322;SDS011;11833;52.554;13.554;2023-12-07T10:05:13;19.15;;;11.55;;
23322;SDS011;11833;52.554;13.554;2023-12-07T10:07:41;18.75;;;11.73;;
23322;SDS011;11833;52.554;13.554;2023-12-07T10:10:13;16.60;;;10.23;;
23322;SDS011;11833;52.554;13.554;2023-12-07T10:12:46;20.02;;;11.75;;
23322;SDS011;11833;52.554;13.554;2023-12-07T10:15:16;25.52;;;12.15;;
23322;SDS011;11833;52.554;13.554;2023-12-07T10:20:19;22.83;;;11.60;;
23322;SDS011;11833;52.554;13.554;2023-12-07T10:23:03;24.58;;;12.43;;
23322;SDS011;11833;52.554;13.554;2023-12-07T10:25:40;20.88;;;11.27;;
23322;SDS011;11833;52.554;13.554;2023-12-07T10:28:07;20.00;;;12.70;;
23322;SDS011;11833;52.554;13.554;2023-12-07T10:30:36;17.98;;;11.15;;
23322;SDS011;11833;52.554;13.554;2023-12-07T10:33:03;20.35;;;11.48;;
23322;SDS011;11833;52.554;13.554;2023-12-07T10:35:30;20.63;;;11.57;;
23322;SDS011;11833;52.554;13.554;2023-12-07T10:37:56;18.23;;;11.05;;
23322;SDS011;11833;52.554;13.554;2023-12-07T10:40:22;22.48;;;11.85;;
23322;SDS011;11833;52.554;13.554;2023-12-07T10:42:48;21.08;;;12.30;;
23322;SDS011;11833;52.554;13.554;2023-12-07T10:45:19;19.92;;;11.63;;
23322;SDS011;11833;52.554;13.554;2023-12-07T10:47:47;22.77;;;13.52;;
23322;SDS011;11833;52.554;13.554;2023-12-07T10:50:14;20.60;;;11.68;;
23322;SDS011;11833;52.554;13.554;2023-12-07T10:52:48;17.40;;;9.98;;
23322;SDS011;11833;52.554;13.554;2023-12-07T10:55:20;21.25;;;11.60;;
23322;SDS011;11833;52.554;13.554;2023-12-07T10:57:55;20.33;;;12.25;;
23322;SDS011;11833;52.554;13.554;2023-12-07T11:00:24;16.05;;;9.63;;
23322;SDS011;11833;52.554;13.554;2023-12-07T11:02:55;17.92;;;10.77;;
23322;SDS011;11833;52.554;13.554;2023-12-07T11:05:21;13.60;;;8.52;;
23322;SDS011;11833;52.554;13.554;2023-12-07T11:07:48;18.13;;;10.70;;
23322;SDS011;11833;52.554;13.554;2023-12-07T11:10:49;21.15;;;12.15;;
23322;SDS011;11833;52.554;13.554;2023-12-07T11:13:27;19.25;;;11.10;;
23322;SDS011;11833;52.554;13.554;2023-12-07T11:15:56;23.92;;;12.02;;
23322;SDS011;11833;52.554;13.554;2023-12-07T11:18:26;18.80;;;11.70;;
23322;SDS011;11833;52.554;13.554;2023-12-07T11:20:53;26.40;;;14.02;;
23322;SDS011;11833;52.554;13.554;2023-12-07T11:23:20;26.02;;;14.65;;
23322;SDS011;11833;52.554;13.554;2023-12-07T11:25:47;20.98;;;11.43;;
23322;SDS011;11833;52.554;13.554;2023-12-07T11:28:15;17.73;;;10.75;;
23322;SDS011;11833;52.554;13.554;2023-12-07T11:30:42;21.65;;;11.65;;
23322;SDS011;11833;52.554;13.554;2023-12-07T11:33:10;19.00;;;10.88;;
23322;SDS011;11833;52.554;13.554;2023-12-07T11:38:28;22.05;;;13.52;;
23322;SDS011;11833;52.554;13.554;2023-12-07T11:40:54;16.40;;;9.55;;
23322;SDS011;11833;52.554;13.554;2023-12-07T11:46:01;17.55;;;10.57;;
23322;SDS011;11833;52.554;13.554;2023-12-07T11:48:27;22.00;;;11.43;;
23322;SDS011;11833;52.554;13.554;2023-12-07T11:50:56;21.67;;;11.82;;
23322;SDS011;11833;52.554;13.554;2023-12-07T11:53:27;22.48;;;12.52;;
23322;SDS011;11833;52.554;13.554;2023-12-07T11:55:57;17.80;;;10.82;;
23322;SDS011;11833;52.554;13.554;2023-12-07T11:58:26;23.65;;;13.27;;
23322;SDS011;11833;52.554;13.554;2023-12-07T12:00:53;21.15;;;11.23;;
23322;SDS011;11833;52.554;13.554;2023-12-07T12:03:21;27.70;;;13.57;;
23322;SDS011;11833;52.554;13.554;2023-12-07T12:05:48;24.33;;;13.38;;
23322;SDS011;11833;52.554;13.554;2023-12-07T12:08:13;17.48;;;10.15;;
23322;SDS011;11833;52.554;13.554;2023-12-07T12:10:41;19.23;;;11.23;;
23322;SDS011;11833;52.554;13.554;2023-12-07T12:13:10;22.80;;;12.77;;
23322;SDS011;11833;52.554;13.554;2023-12-07T12:15:37;19.08;;;10.52;;
23322;SDS011;11833;52.554;13.554;2023-12-07T12:18:04;19.63;;;10.40;;
23322;SDS011;11833;52.554;13.554;2023-12-07T12:20:31;21.63;;;12.45;;
23322;SDS011;11833;52.554;13.554;2023-12-07T12:22:57;15.48;;;10.13;;
23322;SDS011;11833;52.554;13.554;2023-12-07T12:25:25;18.13;;;10.77;;
23322;SDS011;11833;52.554;13.554;2023-12-07T12:27:59;18.95;;;10.95;;
23322;SDS011;11833;52.554;13.554;2023-12-07T12:30:28;26.42;;;13.48;;
23322;SDS011;11833;52.554;13.554;2023-12-07T12:32:55;20.33;;;11.38;;
23322;SDS011;11833;52.554;13.554;2023-12-07T12:35:22;13.18;;;8.38;;
23322;SDS011;11833;52.554;13.554;2023-12-07T12:37:48;16.83;;;9.98;;
23322;SDS011;11833;52.554;13.554;2023-12-07T12:40:15;17.77;;;10.95;;
23322;SDS011;11833;52.554;13.554;2023-12-07T12:42:48;20.20;;;11.85;;
23322;SDS011;11833;52.554;13.554;2023-12-07T12:45:16;49.05;;;24.02;;
23322;SDS011;11833;52.554;13.554;2023-12-07T12:47:46;21.95;;;12.82;;
23322;SDS011;11833;52.554;13.554;2023-12-07T12:50:32;23.67;;;13.25;;
23322;SDS011;11833;52.554;13.554;2023-12-07T12:52:59;26.02;;;14.60;;
23322;SDS011;11833;52.554;13.554;2023-12-07T12:55:26;22.88;;;14.15;;
23322;SDS011;11833;52.554;13.554;2023-12-07T12:57:55;26.73;;;14.82;;
23322;SDS011;11833;52.554;13.554;2023-12-07T13:00:21;25.77;;;14.13;;
23322;SDS011;11833;52.554;13.554;2023-12-07T13:02:49;20.20;;;12.93;;
23322;SDS011;11833;52.554;13.554;2023-12-07T13:05:15;23.52;;;13.52;;
23322;SDS011;11833;52.554;13.554;2023-12-07T13:07:43;24.38;;;14.32;;
23322;SDS011;11833;52.554;13.554;2023-12-07T13:10:09;28.48;;;14.70;;
23322;SDS011;11833;52.554;13.554;2023-12-07T13:12:35;25.58;;;13.20;;
23322;SDS011;11833;52.554;13.554;2023-12-07T13:15:01;24.75;;;14.55;;
23322;SDS011;11833;52.554;13.554;2023-12-07T13:17:27;16.05;;;9.60;;
23322;SDS011;11833;52.554;13.554;2023-12-07T13:19:53;23.88;;;11.95;;
23322;SDS011;11833;52.554;13.554;2023-12-07T13:22:19;22.17;;;12.50;;
23322;SDS011;11833;52.554;13.554;2023-12-07T13:24:47;25.38;;;13.93;;
23322;SDS011;11833;52.554;13.554;2023-12-07T13:27:14;26.08;;;13.73;;
23322;SDS011;11833;52.554;13.554;2023-12-07T13:29:40;28.08;;;15.45;;
23322;SDS011;11833;52.554;13.554;2023-12-07T13:32:06;23.90;;;13.32;;
23322;SDS011;11833;52.554;13.554;2023-12-07T13:34:33;21.50;;;12.88;;
23322;SDS011;11833;52.554;13.554;2023-12-07T13:36:59;25.27;;;14.10;;
23322;SDS011;11833;52.554;13.554;2023-12-07T13:39:24;22.17;;;12.63;;
23322;SDS011;11833;52.554;13.554;2023-12-07T13:41:51;22.90;;;12.77;;
23322;SDS011;11833;52.554;13.554;2023-12-07T13:44:17;25.23;;;13.27;;
23322;SDS011;11833;52.554;13.554;2023-12-07T13:46:44;19.42;;;11.13;;
23322;SDS011;11833;52.554;13.554;2023-12-07T13:49:10;23.55;;;13.40;;
23322;SDS011;11833;52.554;13.554;2023-12-07T13:51:37;25.70;;;14.63;;
23322;SDS011;11833;52.554;13.554;2023-12-07T13:54:03;21.73;;;12.05;;
23322;SDS011;11833;52.554;13.554;2023-12-07T13:56:29;26.23;;;14.82;;
23322;SDS011;11833;52.554;13.554;2023-12-07T13:58:55;28.88;;;14.60;;
23322;SDS011;11833;52.554;13.554;2023-12-07T14:01:20;27.55;;;14.55;;
23322;SDS011;11833;52.554;13.554;2023-12-07T14:03:46;30.75;;;16.85;;
23322;SDS011;11833;52.554;13.554;2023-12-07T14:06:21;30.05;;;16.58;;
23322;SDS011;11833;52.554;13.554;2023-12-07T14:08:48;30.10;;;15.48;;
23322;SDS011;11833;52.554;13.554;2023-12-07T14:11:15;21.45;;;13.48;;
23322;SDS011;11833;52.554;13.554;2023-12-07T14:13:41;25.77;;;14.68;;
23322;SDS011;11833;52.554;13.554;2023-12-07T14:16:08;35.63;;;18.80;;
23322;SDS011;11833;52.554;13.554;2023-12-07T14:18:34;28.13;;;14.93;;
23322;SDS011;11833;52.554;13.554;2023-12-07T14:20:59;30.73;;;17.83;;
23322;SDS011;11833;52.554;13.554;2023-12-07T14:23:25;31.52;;;16.40;;
23322;SDS011;11833;52.554;13.554;2023-12-07T14:25:51;35.08;;;18.08;;
23322;SDS011;11833;52.554;13.554;2023-12-07T14:28:21;32.83;;;18.92;;
23322;SDS011;11833;52.554;13.554;2023-12-07T14:30:47;34.17;;;18.27;;
23322;SDS011;11833;52.554;13.554;2023-12-07T14:33:12;34.03;;;19.08;;
23322;SDS011;11833;52.554;13.554;2023-12-07T14:35:38;36.05;;;19.75;;
23322;SDS011;11833;52.554;13.554;2023-12-07T14:38:04;31.75;;;17.38;;
23322;SDS011;11833;52.554;13.554;2023-12-07T14:40:29;34.13;;;19.35;;
23322;SDS011;11833;52.554;13.554;2023-12-07T14:42:56;33.05;;;18.75;;
23322;SDS011;11833;52.554;13.554;2023-12-07T14:45:22;35.55;;;19.90;;
23322;SDS011;11833;52.554;13.554;2023-12-07T14:47:47;36.65;;;19.95;;
23322;SDS011;11833;52.554;13.554;2023-12-07T14:50:14;35.45;;;19.92;;
23322;SDS011;11833;52.554;13.554;2023-12-07T14:52:39;39.30;;;20.67;;
23322;SDS011;11833;52.554;13.554;2023-12-07T14:55:05;36.10;;;19.60;;
23322;SDS011;11833;52.554;13.554;2023-12-07T14:57:32;32.95;;;19.20;;
23322;SDS011;11833;52.554;13.554;2023-12-07T14:59:58;37.17;;;19.52;;
23322;SDS011;11833;52.554;13.554;2023-12-07T15:02:24;35.35;;;20.50;;
23322;SDS011;11833;52.554;13.554;2023-12-07T15:04:50;32.40;;;18.42;;
23322;SDS011;11833;52.554;13.554;2023-12-07T15:07:16;35.40;;;19.73;;
23322;SDS011;11833;52.554;13.554;2023-12-07T15:09:42;35.75;;;19.52;;
23322;SDS011;11833;52.554;13.554;2023-12-07T15:12:07;32.83;;;18.23;;
23322;SDS011;11833;52.554;13.554;2023-12-07T15:14:33;30.27;;;17.90;;
23322;SDS011;11833;52.554;13.554;2023-12-07T15:16:59;32.80;;;18.05;;
23322;SDS011;11833;52.554;13.554;2023-12-07T15:19:25;38.85;;;18.05;;
23322;SDS011;11833;52.554;13.554;2023-12-07T15:21:50;33.95;;;18.20;;
23322;SDS011;11833;52.554;13.554;2023-12-07T15:24:17;35.55;;;19.35;;
23322;SDS011;11833;52.554;13.554;2023-12-07T15:26:43;30.52;;;19.27;;